Time;durP1;ratioP1;P1;durP2;ratioP2;P2;SDS_P1;SDS_P2;PMS_P1;PMS_P2;Temp;Humidity;BMP_temperature;BMP_pressure;BME280_temperature;BME280_humidity;BME280_pressure;Samples;Min_cycle;Max_cycle;Signal;HPM_P1;HPM_P2
2021/11/17 02:27:15;;;;;;;64.97;31.03;;;4.00;99.90;;;;;;5034096;28;20237;-63
2021/11/17 02:30:18;;;;;;;59.97;31.23;;;4.00;99.90;;;;;;5033416;28;20206;-63
2021/11/17 02:33:05;;;;;;;60.43;31.20;;;4.00;99.90;;;;;;5000969;28;20216;-64
2021/11/17 02:35:51;;;;;;;61.77;30.97;;;4.00;99.90;;;;;;5037268;28;20213;-63
2021/11/17 02:38:31;;;;;;;60.07;31.20;;;4.00;99.90;;;;;;5046253;28;20221;-64
2021/11/17 02:41:15;;;;;;;76.60;30.67;;;4.10;99.90;;;;;;5034127;28;20201;-64
2021/11/17 02:43:59;;;;;;;56.50;29.47;;;4.00;99.90;;;;;;5035295;28;20207;-64
2021/11/17 02:46:53;;;;;;;58.13;28.97;;;4.00;99.90;;;;;;5032927;28;20202;-64
2021/11/17 02:49:50;;;;;;;59.97;30.30;;;4.00;99.90;;;;;;5044169;28;20294;-64
2021/11/17 02:52:36;;;;;;;53.60;29.37;;;4.00;99.90;;;;;;5052140;28;20198;-64
2021/11/17 02:55:34;;;;;;;66.87;30.70;;;4.00;99.90;;;;;;5038644;28;20202;-64
2021/11/17 02:58:39;;;;;;;66.57;30.20;;;3.90;99.90;;;;;;5033019;28;20245;-63
2021/11/17 03:01:33;;;;;;;50.10;28.67;;;4.00;99.90;;;;;;5032709;28;20210;-64
2021/11/17 03:04:17;;;;;;;58.63;28.80;;;4.00;99.90;;;;;;5034241;28;20587;-63
2021/11/17 03:06:59;;;;;;;59.73;29.73;;;4.00;99.90;;;;;;5034781;28;20222;-65
2021/11/17 03:09:57;;;;;;;62.80;29.47;;;4.10;99.90;;;;;;5042178;28;20222;-65
2021/11/17 03:12:38;;;;;;;55.20;28.30;;;4.10;99.90;;;;;;5037635;28;20229;-63
2021/11/17 03:15:37;;;;;;;61.37;29.23;;;4.10;99.90;;;;;;5044347;28;20288;-63
2021/11/17 03:18:16;;;;;;;51.67;28.57;;;4.00;99.90;;;;;;5039169;28;20209;-64
2021/11/17 03:21:00;;;;;;;50.60;27.87;;;4.00;99.90;;;;;;5051810;28;20232;-64
2021/11/17 03:23:43;;;;;;;53.53;29.30;;;3.90;99.90;;;;;;5050230;28;20198;-64
2021/11/17 03:26:26;;;;;;;51.43;28.40;;;3.90;99.90;;;;;;5044520;28;20778;-64
2021/11/17 03:29:08;;;;;;;58.30;27.70;;;3.90;99.90;;;;;;5032538;28;20215;-64
2021/11/17 03:31:55;;;;;;;56.23;25.93;;;3.90;99.90;;;;;;5043920;28;20522;-65
2021/11/17 03:34:41;;;;;;;52.40;27.20;;;3.80;99.90;;;;;;5034535;28;20209;-65
2021/11/17 03:37:27;;;;;;;55.80;26.10;;;3.80;99.90;;;;;;5032039;28;20194;-64
2021/11/17 03:40:24;;;;;;;51.00;28.17;;;3.80;99.90;;;;;;5032603;28;20927;-64
2021/11/17 03:43:15;;;;;;;44.17;25.23;;;3.80;99.90;;;;;;5037163;28;20223;-64
2021/11/17 03:46:00;;;;;;;50.03;25.73;;;3.80;99.90;;;;;;5034416;28;20202;-63
2021/11/17 03:48:41;;;;;;;48.83;25.93;;;3.80;99.90;;;;;;5035791;28;20224;-64
2021/11/17 03:51:27;;;;;;;48.43;27.20;;;3.80;99.90;;;;;;5031089;28;20225;-62
2021/11/17 03:54:07;;;;;;;46.00;26.10;;;3.80;99.90;;;;;;5037381;28;20280;-64
2021/11/17 03:56:47;;;;;;;47.20;26.63;;;3.80;99.90;;;;;;5045264;28;20226;-63
2021/11/17 03:59:40;;;;;;;43.93;25.87;;;3.80;99.90;;;;;;5031950;28;20199;-63
2021/11/17 04:02:25;;;;;;;41.60;23.47;;;3.80;99.90;;;;;;5032068;28;20198;-64
2021/11/17 04:05:15;;;;;;;49.53;25.63;;;3.90;99.90;;;;;;5046380;28;20208;-65
2021/11/17 04:08:10;;;;;;;50.27;26.63;;;3.80;99.90;;;;;;5042844;28;20222;-63
2021/11/17 04:10:49;;;;;;;53.37;27.53;;;3.80;99.90;;;;;;5042283;28;20217;-63
2021/11/17 04:13:27;;;;;;;46.90;26.57;;;3.70;99.90;;;;;;5031531;28;20204;-64
2021/11/17 04:16:09;;;;;;;43.53;25.37;;;3.70;99.90;;;;;;5049617;28;20208;-64
2021/11/17 04:18:47;;;;;;;45.77;25.37;;;3.80;99.90;;;;;;5034615;28;20194;-63
2021/11/17 04:21:40;;;;;;;45.17;25.53;;;3.80;99.90;;;;;;5041367;28;20214;-63
2021/11/17 04:24:28;;;;;;;47.00;26.53;;;3.80;99.90;;;;;;5038668;28;20210;-64
2021/11/17 04:27:11;;;;;;;48.10;26.10;;;3.70;99.90;;;;;;5049119;28;20220;-63
2021/11/17 04:30:09;;;;;;;46.13;25.30;;;3.70;99.90;;;;;;5031186;28;20229;-64
2021/11/17 04:32:53;;;;;;;41.33;23.87;;;3.70;99.90;;;;;;5031257;28;20202;-64
2021/11/17 04:35:48;;;;;;;44.43;24.93;;;3.60;99.90;;;;;;5049362;28;20729;-65
2021/11/17 04:39:00;;;;;;;44.50;25.20;;;3.60;99.90;;;;;;5040651;28;20213;-64
2021/11/17 04:41:57;;;;;;;45.00;24.50;;;3.60;99.90;;;;;;5031113;28;20308;-65
2021/11/17 04:44:38;;;;;;;49.33;25.83;;;3.60;99.90;;;;;;5035549;28;20207;-65
2021/11/17 04:47:33;;;;;;;44.37;24.50;;;3.50;99.90;;;;;;5030673;28;20203;-64
2021/11/17 04:50:34;;;;;;;46.40;26.03;;;3.50;99.90;;;;;;5044586;28;20194;-64
2021/11/17 04:53:21;;;;;;;44.33;24.20;;;3.50;99.90;;;;;;5011293;28;20217;-64
2021/11/17 04:56:02;;;;;;;43.67;24.40;;;3.50;99.90;;;;;;5037113;28;20210;-64
2021/11/17 04:58:45;;;;;;;45.87;25.67;;;3.40;99.90;;;;;;5031125;28;20206;-63
2021/11/17 05:01:34;;;;;;;45.83;26.03;;;3.40;99.90;;;;;;5030209;28;20214;-62
2021/11/17 05:04:14;;;;;;;49.77;26.63;;;3.40;99.90;;;;;;5042560;28;20209;-63
2021/11/17 05:07:07;;;;;;;42.70;23.97;;;3.30;99.90;;;;;;5034186;28;20212;-62
2021/11/17 05:09:51;;;;;;;46.27;25.23;;;3.30;99.90;;;;;;5041818;28;20220;-63
2021/11/17 05:12:33;;;;;;;44.73;24.77;;;3.20;99.90;;;;;;5030175;28;20241;-63
2021/11/17 05:15:11;;;;;;;43.50;24.00;;;3.20;99.90;;;;;;5040479;28;20206;-63
2021/11/17 05:17:47;;;;;;;47.53;23.80;;;3.20;99.90;;;;;;5050565;28;20284;-64
2021/11/17 05:20:26;;;;;;;40.83;23.87;;;3.10;99.90;;;;;;5049931;28;20209;-63
2021/11/17 05:23:05;;;;;;;47.00;25.67;;;3.10;99.90;;;;;;5033532;28;20573;-63
2021/11/17 05:25:45;;;;;;;44.13;24.70;;;3.10;99.90;;;;;;5040863;28;20202;-63
2021/11/17 05:28:28;;;;;;;43.90;25.27;;;3.10;99.90;;;;;;5039010;28;20228;-63
2021/11/17 05:31:10;;;;;;;45.97;24.47;;;3.00;99.90;;;;;;5043925;28;20217;-64
2021/11/17 05:34:02;;;;;;;41.20;23.23;;;3.00;99.90;;;;;;5029826;28;20637;-64
2021/11/17 05:36:38;;;;;;;44.53;25.13;;;3.00;99.90;;;;;;5036556;28;20203;-64
2021/11/17 05:39:26;;;;;;;42.17;24.50;;;3.00;99.90;;;;;;5046779;28;20207;-63
2021/11/17 05:42:07;;;;;;;45.00;25.00;;;3.00;99.90;;;;;;5030516;28;20282;-63
2021/11/17 05:44:48;;;;;;;46.50;24.43;;;3.00;99.90;;;;;;5044181;28;20293;-64
2021/11/17 05:47:29;;;;;;;44.00;23.63;;;3.00;99.90;;;;;;5035165;28;20297;-62
2021/11/17 05:50:13;;;;;;;41.17;24.50;;;3.00;99.90;;;;;;5044135;28;20191;-64
2021/11/17 05:52:56;;;;;;;45.07;23.80;;;3.00;99.90;;;;;;5045140;28;20207;-64
2021/11/17 05:55:46;;;;;;;41.50;24.13;;;3.00;99.90;;;;;;5041523;28;20666;-64
2021/11/17 05:58:27;;;;;;;40.53;23.63;;;3.00;99.90;;;;;;5030156;28;20203;-64
2021/11/17 06:01:20;;;;;;;40.07;23.37;;;3.00;99.90;;;;;;5037380;28;20206;-64
2021/11/17 06:03:58;;;;;;;39.97;23.23;;;3.00;99.90;;;;;;5043519;28;20208;-64
2021/11/17 06:06:25;;;;;;;41.07;22.43;;;3.00;99.90;;;;;;5036437;28;20206;-63
2021/11/17 06:08:54;;;;;;;42.17;23.13;;;3.00;99.90;;;;;;5033274;28;20232;-63
2021/11/17 06:11:25;;;;;;;39.90;23.27;;;3.00;99.90;;;;;;5036102;28;20470;-63
2021/11/17 06:13:52;;;;;;;39.27;23.40;;;2.90;99.90;;;;;;5042923;28;20220;-64
2021/11/17 06:16:19;;;;;;;39.67;23.97;;;3.00;99.90;;;;;;5047389;28;20213;-62
2021/11/17 06:18:48;;;;;;;41.27;23.27;;;3.00;99.90;;;;;;5043918;28;20206;-64
2021/11/17 06:21:15;;;;;;;40.67;23.67;;;3.00;99.90;;;;;;5035123;28;20199;-68
2021/11/17 06:23:47;;;;;;;40.80;24.73;;;3.00;99.90;;;;;;5040810;28;20685;-68
2021/11/17 06:26:16;;;;;;;39.47;23.87;;;3.00;99.90;;;;;;5049357;28;20206;-66
2021/11/17 06:28:44;;;;;;;41.50;24.07;;;3.00;99.90;;;;;;5052157;28;20712;-65
2021/11/17 06:31:11;;;;;;;37.53;22.67;;;2.90;99.90;;;;;;5050363;28;20213;-66
2021/11/17 06:33:38;;;;;;;39.03;22.37;;;3.00;99.90;;;;;;5052178;28;20216;-67
2021/11/17 06:36:06;;;;;;;42.47;22.83;;;3.00;99.90;;;;;;5050433;28;20216;-65
2021/11/17 06:38:32;;;;;;;39.67;22.50;;;3.00;99.90;;;;;;5049770;28;20210;-68
2021/11/17 06:40:59;;;;;;;37.30;21.73;;;3.10;99.90;;;;;;5052380;28;20269;-66
2021/11/17 06:43:26;;;;;;;34.87;21.53;;;3.10;99.90;;;;;;5047983;28;20284;-67
2021/11/17 06:45:56;;;;;;;32.43;19.60;;;3.20;99.90;;;;;;5044169;28;20295;-67
2021/11/17 06:48:26;;;;;;;34.03;21.13;;;3.30;99.90;;;;;;5051981;28;20214;-67
2021/11/17 06:50:53;;;;;;;34.87;21.13;;;3.30;99.90;;;;;;5051349;28;20248;-66
2021/11/17 06:53:21;;;;;;;34.60;20.47;;;3.40;99.90;;;;;;5044465;28;20202;-68
2021/11/17 06:55:48;;;;;;;34.13;20.87;;;3.50;99.90;;;;;;5033211;28;20211;-67
2021/11/17 06:58:14;;;;;;;32.40;19.93;;;3.50;99.90;;;;;;5048725;28;20202;-68
2021/11/17 07:00:43;;;;;;;36.73;22.30;;;3.60;99.90;;;;;;5036860;28;20220;-67
2021/11/17 07:03:13;;;;;;;35.47;20.90;;;3.60;99.90;;;;;;5046003;28;20615;-68
2021/11/17 07:05:40;;;;;;;33.70;20.33;;;3.70;99.90;;;;;;5032606;28;20206;-67
2021/11/17 07:08:07;;;;;;;34.10;20.63;;;3.80;99.90;;;;;;5041347;28;20802;-68
2021/11/17 07:10:37;;;;;;;34.27;20.33;;;3.80;99.90;;;;;;5038932;28;20312;-68
2021/11/17 07:13:05;;;;;;;31.73;19.67;;;3.90;99.90;;;;;;5048422;28;20798;-67
2021/11/17 07:15:34;;;;;;;31.77;19.33;;;4.00;99.90;;;;;;5047300;28;20540;-68
2021/11/17 07:18:00;;;;;;;34.10;20.80;;;4.20;99.90;;;;;;5040347;28;20202;-66
2021/11/17 07:20:29;;;;;;;29.63;18.77;;;4.30;99.90;;;;;;5033504;28;20218;-69
2021/11/17 07:22:56;;;;;;;30.70;19.60;;;4.30;99.90;;;;;;5032374;28;20715;-68
2021/11/17 07:25:24;;;;;;;30.27;19.33;;;4.50;99.90;;;;;;5039858;28;20317;-69
2021/11/17 07:27:52;;;;;;;31.57;18.40;;;4.70;99.90;;;;;;5032017;28;20245;-67
2021/11/17 07:30:21;;;;;;;27.70;18.90;;;4.90;99.90;;;;;;5038972;28;20668;-68
2021/11/17 07:32:49;;;;;;;28.23;18.23;;;5.10;99.90;;;;;;5045746;28;20214;-70
2021/11/17 07:35:16;;;;;;;32.93;19.27;;;5.30;99.90;;;;;;5034369;28;20233;-67
2021/11/17 07:37:44;;;;;;;25.10;16.63;;;5.50;99.90;;;;;;5038020;28;20216;-66
2021/11/17 07:40:14;;;;;;;27.03;17.23;;;5.70;99.90;;;;;;5041187;28;20318;-66
2021/11/17 07:42:42;;;;;;;25.43;18.00;;;5.80;99.90;;;;;;5040600;28;20201;-66
2021/11/17 07:45:18;;;;;;;30.50;17.73;;;5.90;99.90;;;;;;5034668;28;20230;-67
2021/11/17 07:47:45;;;;;;;35.97;18.87;;;6.00;99.90;;;;;;5047834;28;20224;-65
2021/11/17 07:50:12;;;;;;;32.87;19.27;;;6.00;99.90;;;;;;5044880;28;20333;-66
2021/11/17 07:52:40;;;;;;;31.43;20.23;;;5.90;99.90;;;;;;5030586;28;20207;-65
2021/11/17 07:55:11;;;;;;;29.53;19.53;;;5.90;99.90;;;;;;5045855;28;20300;-66
2021/11/17 07:57:39;;;;;;;29.57;18.43;;;5.90;99.90;;;;;;5039773;28;20332;-67
2021/11/17 08:00:09;;;;;;;29.43;19.17;;;6.00;99.90;;;;;;5034933;28;20210;-66
2021/11/17 08:02:36;;;;;;;31.30;20.03;;;6.00;99.90;;;;;;5037960;28;20722;-66
2021/11/17 08:05:03;;;;;;;31.03;18.60;;;6.10;99.90;;;;;;5044414;28;20598;-66
2021/11/17 08:07:30;;;;;;;31.20;19.70;;;6.20;99.90;;;;;;5032848;28;20273;-64
2021/11/17 08:09:58;;;;;;;29.20;18.57;;;6.40;99.90;;;;;;5030917;28;20427;-64
2021/11/17 08:12:26;;;;;;;31.20;18.73;;;6.50;99.90;;;;;;5037127;28;20225;-67
2021/11/17 08:14:54;;;;;;;28.80;18.87;;;6.70;99.90;;;;;;5035207;28;20534;-66
2021/11/17 08:17:22;;;;;;;28.73;18.77;;;6.90;99.90;;;;;;5038191;28;20664;-65
2021/11/17 08:19:49;;;;;;;30.13;18.90;;;7.00;99.90;;;;;;5044460;28;20317;-67
2021/11/17 08:22:16;;;;;;;28.27;19.17;;;7.20;99.90;;;;;;5045200;28;20201;-67
2021/11/17 08:24:45;;;;;;;28.60;17.30;;;7.30;99.90;;;;;;5055662;28;20305;-66
2021/11/17 08:27:18;;;;;;;27.57;18.90;;;7.50;99.90;;;;;;5051016;28;20714;-66
2021/11/17 08:29:48;;;;;;;27.80;17.47;;;7.60;99.90;;;;;;5048582;28;20651;-68
2021/11/17 08:32:15;;;;;;;24.90;17.13;;;7.80;99.90;;;;;;5034970;28;20214;-68
2021/11/17 08:34:42;;;;;;;30.33;19.03;;;7.90;99.90;;;;;;5032630;28;20216;-67
2021/11/17 08:37:11;;;;;;;28.27;19.37;;;8.10;99.90;;;;;;5038630;28;20686;-67
2021/11/17 08:39:40;;;;;;;28.37;18.20;;;8.60;99.90;;;;;;5038608;28;20210;-69
2021/11/17 08:42:08;;;;;;;26.37;17.53;;;9.40;99.90;;;;;;5049528;28;20301;-68
2021/11/17 08:44:36;;;;;;;26.03;18.43;;;10.50;99.90;;;;;;5037004;28;20598;-67
2021/11/17 08:47:08;;;;;;;25.67;18.70;;;11.50;99.90;;;;;;5047027;28;20220;-67
2021/11/17 08:49:35;;;;;;;25.27;18.17;;;12.50;99.90;;;;;;5046606;28;20645;-67
2021/11/17 08:52:02;;;;;;;28.33;17.17;;;13.40;99.90;;;;;;5042361;28;20584;-67
2021/11/17 08:54:30;;;;;;;26.83;17.90;;;13.90;96.90;;;;;;5030966;28;20205;-68
2021/11/17 08:56:58;;;;;;;23.90;17.33;;;14.10;95.10;;;;;;5030089;28;20230;-67
2021/11/17 08:59:25;;;;;;;23.87;16.57;;;14.70;93.70;;;;;;5033845;28;20261;-68
2021/11/17 09:01:53;;;;;;;26.30;18.20;;;15.50;90.90;;;;;;5034051;28;20519;-66
2021/11/17 09:04:21;;;;;;;24.07;16.70;;;16.40;87.80;;;;;;5040354;28;20242;-68
2021/11/17 09:06:48;;;;;;;23.67;18.63;;;17.30;81.90;;;;;;5036522;28;20293;-66
2021/11/17 09:09:15;;;;;;;21.37;17.00;;;17.90;73.30;;;;;;5040984;28;20607;-66
2021/11/17 09:11:42;;;;;;;21.63;16.73;;;17.90;69.80;;;;;;5047224;28;20242;-67
2021/11/17 09:14:10;;;;;;;21.23;16.50;;;17.20;65.30;;;;;;5030664;28;20213;-66
2021/11/17 09:16:39;;;;;;;23.90;17.03;;;16.70;68.30;;;;;;5037027;28;20222;-67
2021/11/17 09:19:09;;;;;;;21.83;15.73;;;16.60;68.30;;;;;;5032303;28;20221;-67
2021/11/17 09:21:40;;;;;;;18.50;15.47;;;16.50;67.30;;;;;;5033155;28;20202;-66
2021/11/17 09:24:08;;;;;;;20.33;16.33;;;15.90;65.50;;;;;;5036548;28;20285;-68
2021/11/17 09:26:42;;;;;;;18.63;15.47;;;15.10;67.10;;;;;;5044139;28;20536;-66
2021/11/17 09:29:09;;;;;;;23.77;16.13;;;14.30;68.00;;;;;;5047879;28;20218;-66
2021/11/17 09:31:39;;;;;;;22.03;16.20;;;13.60;71.00;;;;;;5037873;28;20316;-67
2021/11/17 09:34:07;;;;;;;21.67;16.17;;;13.00;72.50;;;;;;5046634;28;20202;-66
2021/11/17 09:36:36;;;;;;;25.83;16.13;;;12.40;73.50;;;;;;5042742;28;20657;-66
2021/11/17 09:39:05;;;;;;;23.13;15.70;;;11.80;75.80;;;;;;5043439;28;20201;-68
2021/11/17 09:41:36;;;;;;;21.03;15.73;;;11.30;78.60;;;;;;5047973;28;20202;-67
2021/11/17 09:44:06;;;;;;;22.27;16.13;;;11.30;83.70;;;;;;5038970;28;20298;-68
2021/11/17 09:46:34;;;;;;;22.87;16.50;;;11.70;87.00;;;;;;5033844;28;20337;-65
2021/11/17 09:49:05;;;;;;;21.53;15.43;;;12.70;90.00;;;;;;5046615;28;20230;-64
2021/11/17 09:51:35;;;;;;;23.37;16.07;;;14.40;82.40;;;;;;5049462;28;20206;-66
2021/11/17 09:54:11;;;;;;;22.00;16.07;;;16.00;77.20;;;;;;5040558;28;20203;-67
2021/11/17 09:56:42;;;;;;;22.93;15.93;;;17.70;73.50;;;;;;5035629;28;20222;-66
2021/11/17 09:59:12;;;;;;;23.30;15.40;;;18.80;64.50;;;;;;5036454;28;20199;-66
2021/11/17 10:01:47;;;;;;;20.47;16.13;;;19.30;64.60;;;;;;5045570;28;20213;-66
2021/11/17 10:04:21;;;;;;;18.73;15.33;;;20.40;60.20;;;;;;5051835;28;20213;-66
2021/11/17 10:12:52;;;;;;;18.00;15.52;;;21.30;51.80;;;;;;5034965;28;20233;-65
2021/11/17 10:15:22;;;;;;;24.20;16.15;;;21.60;55.40;;;;;;5037175;28;20212;-66
2021/11/17 10:17:52;;;;;;;21.98;16.95;;;22.60;52.60;;;;;;5041629;28;20206;-66
2021/11/17 10:20:32;;;;;;;19.48;15.93;;;23.50;50.40;;;;;;5043094;28;20202;-67
2021/11/17 10:23:24;;;;;;;20.33;17.10;;;24.30;48.90;;;;;;5033193;28;20309;-66
2021/11/17 10:25:55;;;;;;;22.23;16.52;;;25.30;47.20;;;;;;5036956;28;20207;-65
2021/11/17 10:28:30;;;;;;;20.23;16.85;;;26.00;44.80;;;;;;5035442;28;20211;-66
2021/11/17 10:31:07;;;;;;;19.88;17.13;;;25.90;43.90;;;;;;5038039;28;20218;-67
2021/11/17 10:33:46;;;;;;;18.33;16.40;;;25.20;42.00;;;;;;5040835;28;20201;-67
2021/11/17 10:36:21;;;;;;;20.88;16.10;;;24.40;44.10;;;;;;5037794;28;20194;-65
2021/11/17 10:38:51;;;;;;;20.00;17.75;;;23.70;44.00;;;;;;5038075;28;20558;-66
2021/11/17 10:41:24;;;;;;;20.10;17.00;;;23.00;45.40;;;;;;5040943;28;20205;-66
2021/11/17 10:43:56;;;;;;;21.92;16.73;;;22.50;45.30;;;;;;5040021;28;20572;-66
2021/11/17 10:46:27;;;;;;;23.35;17.05;;;21.60;45.70;;;;;;5046130;28;20226;-65
2021/11/17 10:48:56;;;;;;;21.92;17.35;;;20.60;47.00;;;;;;5037957;28;20206;-66
2021/11/17 10:51:26;;;;;;;23.63;18.03;;;19.70;47.90;;;;;;5044086;28;20723;-65
2021/11/17 10:53:56;;;;;;;19.63;16.05;;;18.80;49.20;;;;;;5044293;28;20586;-66
2021/11/17 10:56:27;;;;;;;22.47;16.47;;;18.00;50.90;;;;;;5040993;28;20229;-64
2021/11/17 10:58:57;;;;;;;26.73;17.57;;;17.20;51.70;;;;;;5039798;28;20210;-65
2021/11/17 11:01:27;;;;;;;24.03;16.83;;;16.50;53.40;;;;;;5048178;28;20216;-65
2021/11/17 11:03:58;;;;;;;22.20;17.50;;;15.80;54.90;;;;;;5046256;28;20296;-66
2021/11/17 11:06:29;;;;;;;21.27;17.20;;;15.50;56.20;;;;;;5043070;28;20215;-67
2021/11/17 11:09:01;;;;;;;23.07;16.23;;;15.10;57.20;;;;;;5038144;28;20693;-67
2021/11/17 11:11:30;;;;;;;29.63;16.53;;;15.00;58.10;;;;;;5044790;28;20714;-66
2021/11/17 11:14:02;;;;;;;23.23;16.93;;;14.30;58.50;;;;;;5034655;28;20203;-66
2021/11/17 11:16:31;;;;;;;22.37;16.93;;;13.80;59.50;;;;;;5044837;28;20681;-67
2021/11/17 11:19:30;;;;;;;23.70;16.53;;;13.40;61.10;;;;;;5048459;28;20633;-68
2021/11/17 11:22:08;;;;;;;23.40;16.63;;;12.90;63.70;;;;;;5036987;28;20205;-67
2021/11/17 11:24:37;;;;;;;23.57;17.70;;;12.80;65.10;;;;;;5038319;28;20249;-68
2021/11/17 11:27:18;;;;;;;27.60;16.63;;;12.70;65.40;;;;;;5046134;28;20234;-67
2021/11/17 11:29:47;;;;;;;24.03;15.90;;;12.60;67.00;;;;;;5048544;28;20232;-67
2021/11/17 11:32:49;;;;;;;25.07;17.10;;;12.60;68.10;;;;;;5046421;28;20229;-68
2021/11/17 11:35:22;;;;;;;24.60;16.97;;;12.50;68.50;;;;;;5040929;28;20194;-68
2021/11/17 11:38:05;;;;;;;22.47;16.70;;;12.40;68.60;;;;;;5043885;28;20296;-66
2021/11/17 11:41:01;;;;;;;25.37;16.43;;;12.20;69.40;;;;;;5051661;28;20678;-68
2021/11/17 11:43:29;;;;;;;22.43;15.90;;;11.90;70.10;;;;;;5039507;28;20206;-66
2021/11/17 11:46:16;;;;;;;22.13;16.43;;;11.50;71.10;;;;;;5048533;28;20201;-68
2021/11/17 11:49:03;;;;;;;24.47;16.40;;;11.20;73.10;;;;;;5045430;28;20202;-67
2021/11/17 11:51:51;;;;;;;24.13;16.87;;;10.80;74.90;;;;;;5044257;28;20221;-67
2021/11/17 11:54:24;;;;;;;26.43;18.07;;;10.60;77.00;;;;;;5031558;28;20244;-67
2021/11/17 11:56:53;;;;;;;23.93;16.87;;;10.40;78.40;;;;;;5033379;28;20309;-67
2021/11/17 11:59:26;;;;;;;28.00;17.73;;;10.40;80.20;;;;;;5031704;28;20308;-67
2021/11/17 12:02:07;;;;;;;27.20;17.53;;;10.30;81.50;;;;;;5032136;28;20205;-68
2021/11/17 12:04:34;;;;;;;26.07;17.40;;;10.30;82.40;;;;;;5036315;28;20213;-66
2021/11/17 12:07:07;;;;;;;26.03;17.77;;;10.20;83.60;;;;;;5044449;28;20209;-66
2021/11/17 12:09:37;;;;;;;28.23;18.10;;;10.20;84.40;;;;;;5047506;28;20212;-66
2021/11/17 12:12:08;;;;;;;27.17;18.57;;;10.00;84.80;;;;;;5043984;28;20265;-67
2021/11/17 12:14:44;;;;;;;27.87;18.67;;;10.00;85.80;;;;;;5049723;28;20210;-67
2021/11/17 12:17:11;;;;;;;30.30;18.27;;;9.90;88.30;;;;;;5047642;28;20612;-67
2021/11/17 12:19:45;;;;;;;27.27;18.43;;;9.90;89.80;;;;;;5043705;28;20241;-66
2021/11/17 12:22:17;;;;;;;30.90;18.70;;;9.80;90.40;;;;;;5042222;28;20313;-67
2021/11/17 12:24:47;;;;;;;28.80;18.00;;;9.80;91.50;;;;;;5041307;28;20213;-68
2021/11/17 12:27:16;;;;;;;26.80;18.03;;;9.70;91.70;;;;;;5048087;28;20213;-68
2021/11/17 12:29:56;;;;;;;29.20;18.70;;;9.70;92.20;;;;;;5044530;28;20206;-67
2021/11/17 12:32:29;;;;;;;27.23;18.30;;;9.60;92.80;;;;;;5042021;28;20251;-68
2021/11/17 12:35:05;;;;;;;28.33;19.40;;;9.50;93.60;;;;;;5050875;28;20659;-69
2021/11/17 12:37:36;;;;;;;24.97;17.33;;;9.50;94.50;;;;;;5041060;28;20220;-66
2021/11/17 12:40:07;;;;;;;28.13;18.47;;;9.50;95.10;;;;;;5048414;28;20483;-68
2021/11/17 12:42:38;;;;;;;29.87;18.47;;;9.50;95.80;;;;;;5051223;28;20209;-68
2021/11/17 12:45:19;;;;;;;29.47;18.83;;;9.40;96.30;;;;;;5051435;28;20210;-67
2021/11/17 12:47:50;;;;;;;28.60;18.70;;;9.50;97.00;;;;;;5049763;28;20214;-67
2021/11/17 12:50:20;;;;;;;25.80;18.43;;;9.50;97.40;;;;;;5034804;28;20231;-67
2021/11/17 12:52:53;;;;;;;29.83;20.83;;;9.50;97.80;;;;;;5049226;28;20210;-67
2021/11/17 12:55:24;;;;;;;28.20;19.23;;;9.40;98.10;;;;;;5044449;28;20286;-67
2021/11/17 12:57:54;;;;;;;29.20;19.53;;;9.30;98.90;;;;;;5038505;28;20634;-68
2021/11/17 13:00:45;;;;;;;31.13;20.00;;;9.30;99.50;;;;;;5049962;28;20205;-67
2021/11/17 13:03:27;;;;;;;29.83;20.03;;;9.20;99.90;;;;;;5039117;28;20234;-68
2021/11/17 13:06:07;;;;;;;31.67;19.53;;;9.10;99.90;;;;;;5048835;28;20208;-66
2021/11/17 13:08:36;;;;;;;28.70;20.50;;;9.00;99.90;;;;;;5044367;28;20565;-67
2021/11/17 13:11:10;;;;;;;30.70;20.50;;;8.90;99.90;;;;;;5049843;28;20296;-68
2021/11/17 13:13:44;;;;;;;32.30;21.07;;;8.70;99.90;;;;;;5047025;28;20206;-67
2021/11/17 13:16:20;;;;;;;32.20;20.13;;;8.60;99.90;;;;;;5045062;28;20293;-68
2021/11/17 13:18:54;;;;;;;35.50;22.17;;;8.50;99.90;;;;;;5043814;28;20265;-66
2021/11/17 13:21:50;;;;;;;31.93;20.37;;;8.40;99.90;;;;;;5049354;28;20238;-68
2021/11/17 13:24:34;;;;;;;32.57;21.00;;;8.30;99.90;;;;;;5041770;28;20214;-66
2021/11/17 13:27:39;;;;;;;28.37;20.03;;;8.20;99.90;;;;;;5045867;28;20236;-66
2021/11/17 13:30:36;;;;;;;31.97;21.27;;;8.00;99.90;;;;;;5050018;28;20240;-67
2021/11/17 13:33:28;;;;;;;30.03;20.63;;;8.00;99.90;;;;;;5045226;28;20601;-67
2021/11/17 13:36:05;;;;;;;32.30;21.83;;;7.90;99.90;;;;;;5041404;28;20664;-67
2021/11/17 13:38:33;;;;;;;30.97;20.33;;;7.80;99.90;;;;;;5047481;28;20569;-68
2021/11/17 13:41:02;;;;;;;34.00;21.90;;;7.70;99.90;;;;;;5051469;28;20284;-67
2021/11/17 13:43:30;;;;;;;31.73;21.37;;;7.70;99.90;;;;;;5042815;28;20637;-67
2021/11/17 13:45:59;;;;;;;31.07;20.20;;;7.60;99.90;;;;;;5050333;28;20210;-68
2021/11/17 13:48:31;;;;;;;34.43;22.40;;;7.60;99.90;;;;;;5049920;28;20210;-67
2021/11/17 13:50:58;;;;;;;30.00;20.10;;;7.60;99.90;;;;;;5048340;28;20210;-67
2021/11/17 13:53:26;;;;;;;33.80;21.17;;;7.50;99.90;;;;;;5033724;28;20211;-67
2021/11/17 13:55:55;;;;;;;34.30;22.20;;;7.50;99.90;;;;;;5045873;28;20217;-67
2021/11/17 13:58:23;;;;;;;32.07;21.93;;;7.40;99.90;;;;;;5041416;28;20206;-67
2021/11/17 14:00:50;;;;;;;32.30;21.70;;;7.40;99.90;;;;;;5044320;28;20541;-67
2021/11/17 14:03:17;;;;;;;33.67;22.13;;;7.30;99.90;;;;;;5047924;28;20229;-67
2021/11/17 14:05:49;;;;;;;37.37;22.60;;;7.30;99.90;;;;;;5049765;28;20268;-67
2021/11/17 14:08:17;;;;;;;31.30;20.97;;;7.30;99.90;;;;;;5038442;28;20806;-67
2021/11/17 14:10:45;;;;;;;30.40;20.67;;;7.30;99.90;;;;;;5048760;28;20418;-66
2021/11/17 14:13:13;;;;;;;33.93;20.37;;;7.20;99.90;;;;;;5034207;28;20268;-67
2021/11/17 14:15:41;;;;;;;32.53;21.80;;;7.10;99.90;;;;;;5052198;28;20545;-66
2021/11/17 14:18:11;;;;;;;34.63;19.87;;;7.00;99.90;;;;;;5045827;28;20205;-68
2021/11/17 14:20:38;;;;;;;33.63;22.40;;;6.90;99.90;;;;;;5053403;28;20229;-67
2021/11/17 14:23:07;;;;;;;33.77;22.20;;;6.90;99.90;;;;;;5041995;28;20289;-65
2021/11/17 14:25:35;;;;;;;36.63;24.30;;;6.80;99.90;;;;;;5049965;28;20289;-68
2021/11/17 14:28:05;;;;;;;35.10;21.77;;;6.70;99.90;;;;;;5033984;28;20217;-66
2021/11/17 14:30:40;;;;;;;39.20;22.90;;;6.60;99.90;;;;;;5036719;28;20219;-67
2021/11/17 14:33:08;;;;;;;34.07;22.87;;;6.50;99.90;;;;;;5042027;28;20264;-67
2021/11/17 14:35:35;;;;;;;34.87;23.43;;;6.50;99.90;;;;;;5047161;28;20226;-67
2021/11/17 14:38:02;;;;;;;40.00;23.23;;;6.40;99.90;;;;;;5035273;28;20238;-67
2021/11/17 14:40:31;;;;;;;37.10;24.27;;;6.30;99.90;;;;;;5036380;28;20289;-67
2021/11/17 14:42:58;;;;;;;33.60;23.33;;;6.30;99.90;;;;;;5049088;28;20684;-68
2021/11/17 14:45:28;;;;;;;34.47;22.67;;;6.20;99.90;;;;;;5047804;28;20210;-69
2021/11/17 14:47:56;;;;;;;35.20;23.50;;;6.20;99.90;;;;;;5039399;28;20201;-68
2021/11/17 14:50:23;;;;;;;35.33;24.00;;;6.10;99.90;;;;;;5038273;28;20205;-66
2021/11/17 14:52:51;;;;;;;36.57;23.17;;;6.10;99.90;;;;;;5037049;28;20207;-69
2021/11/17 14:55:21;;;;;;;38.27;23.60;;;6.10;99.90;;;;;;5037027;28;20242;-70
2021/11/17 14:57:49;;;;;;;37.93;23.37;;;6.10;99.90;;;;;;5037342;28;20306;-68
2021/11/17 15:00:21;;;;;;;34.97;24.07;;;6.10;99.90;;;;;;5037012;28;20206;-66
2021/11/17 15:02:48;;;;;;;35.50;24.40;;;6.00;99.90;;;;;;5039739;28;20210;-68
2021/11/17 15:05:15;;;;;;;39.17;26.10;;;6.00;99.90;;;;;;5032401;28;20230;-68
2021/11/17 15:07:42;;;;;;;40.27;25.80;;;6.00;99.90;;;;;;5034018;28;20310;-68
2021/11/17 15:10:12;;;;;;;40.47;25.50;;;6.00;99.90;;;;;;5032018;28;20206;-66
2021/11/17 15:12:40;;;;;;;41.00;26.40;;;5.90;99.90;;;;;;5041430;28;20328;-65
2021/11/17 15:15:12;;;;;;;42.00;26.37;;;5.90;99.90;;;;;;5050022;28;20499;-66
2021/11/17 15:17:39;;;;;;;38.87;24.93;;;5.90;99.90;;;;;;5037879;28;20649;-66
2021/11/17 15:20:07;;;;;;;40.63;25.87;;;5.90;99.90;;;;;;5033077;28;20203;-66
2021/11/17 15:22:37;;;;;;;43.83;25.80;;;5.90;99.90;;;;;;5038579;28;20297;-66
2021/11/17 15:25:05;;;;;;;41.60;26.10;;;5.90;99.90;;;;;;5039372;28;20297;-67
2021/11/17 15:27:36;;;;;;;40.07;26.20;;;5.90;99.90;;;;;;5033612;28;20217;-67
2021/11/17 15:30:06;;;;;;;39.53;24.80;;;5.90;99.90;;;;;;5031714;28;20220;-67
2021/11/17 15:32:34;;;;;;;38.20;24.87;;;5.90;99.90;;;;;;5032899;28;20244;-67
2021/11/17 15:35:01;;;;;;;42.20;25.20;;;5.80;99.90;;;;;;5045684;28;20245;-67
2021/11/17 15:37:28;;;;;;;44.47;26.73;;;5.80;99.90;;;;;;5032068;28;20585;-64
2021/11/17 15:39:55;;;;;;;41.00;25.77;;;5.80;99.90;;;;;;5038819;28;20684;-65
2021/11/17 15:42:23;;;;;;;40.77;26.37;;;5.80;99.90;;;;;;5032597;28;20654;-66
2021/11/17 15:44:50;;;;;;;39.43;25.97;;;5.80;99.90;;;;;;5031658;28;20226;-67